Time;durP1;ratioP1;P1;durP2;ratioP2;P2;SDS_P1;SDS_P2;PMS_P1;PMS_P2;Temp;Humidity;BMP_temperature;BMP_pressure;BME280_temperature;BME280_humidity;BME280_pressure;Samples;Min_cycle;Max_cycle;Signal;HPM_P1;HPM_P2
2022/10/10 00:00:55;;;;;;;17.60;11.50;;;8.90;99.90;;;;;;5114777;28;20208;-69
2022/10/10 00:03:22;;;;;;;17.50;11.30;;;8.90;99.90;;;;;;5113385;28;20200;-69
2022/10/10 00:05:48;;;;;;;16.67;11.13;;;8.90;99.90;;;;;;5113936;28;20206;-70
2022/10/10 00:08:15;;;;;;;15.00;10.07;;;8.90;99.90;;;;;;5114489;28;20208;-69
2022/10/10 00:10:42;;;;;;;18.10;10.47;;;8.90;99.90;;;;;;5113620;28;20203;-69
2022/10/10 00:13:09;;;;;;;15.97;10.70;;;8.90;99.90;;;;;;5112385;27;20216;-71
2022/10/10 00:15:37;;;;;;;17.77;11.27;;;8.80;99.90;;;;;;5115161;28;20211;-70
2022/10/10 00:18:04;;;;;;;18.73;11.43;;;8.90;99.90;;;;;;5114726;28;20660;-70
2022/10/10 00:20:31;;;;;;;17.63;11.23;;;8.80;99.90;;;;;;5114423;28;20211;-70
2022/10/10 00:22:58;;;;;;;14.57;11.23;;;8.80;99.90;;;;;;5115195;28;20231;-69
2022/10/10 00:25:25;;;;;;;16.37;11.23;;;8.80;99.90;;;;;;5115398;28;20232;-70
2022/10/10 00:27:51;;;;;;;20.33;11.43;;;8.80;99.90;;;;;;5112923;28;20677;-70
2022/10/10 00:30:18;;;;;;;17.50;10.83;;;8.70;99.90;;;;;;5114261;27;20228;-69
2022/10/10 00:32:46;;;;;;;19.17;11.27;;;8.70;99.90;;;;;;5115073;28;20218;-69
2022/10/10 00:35:13;;;;;;;15.73;10.97;;;8.70;99.90;;;;;;5112425;28;20222;-70
2022/10/10 00:37:40;;;;;;;17.53;10.67;;;8.70;99.90;;;;;;5114246;28;20203;-69
2022/10/10 00:40:08;;;;;;;17.63;11.37;;;8.70;99.90;;;;;;5115174;28;20207;-68
2022/10/10 00:42:35;;;;;;;19.67;11.43;;;8.70;99.90;;;;;;5115675;28;20208;-69
2022/10/10 00:45:26;;;;;;;19.10;12.27;;;8.70;99.90;;;;;;5109619;28;20231;-69
2022/10/10 00:47:58;;;;;;;17.53;11.73;;;8.70;99.90;;;;;;5108543;28;20211;-69
2022/10/10 00:50:26;;;;;;;18.23;10.93;;;8.60;99.90;;;;;;5114253;28;20235;-69
2022/10/10 00:52:53;;;;;;;15.90;10.50;;;8.60;99.90;;;;;;5112975;28;20208;-70
2022/10/10 00:55:19;;;;;;;15.83;10.27;;;8.60;99.90;;;;;;5106249;28;20205;-69
2022/10/10 00:57:47;;;;;;;20.67;12.13;;;8.60;99.90;;;;;;5105943;28;20203;-69
2022/10/10 01:00:14;;;;;;;14.03;10.93;;;8.60;99.90;;;;;;5107749;28;20203;-69
2022/10/10 01:02:41;;;;;;;19.80;11.77;;;8.60;99.90;;;;;;5112572;28;20219;-69
2022/10/10 01:05:09;;;;;;;15.47;10.90;;;8.60;99.90;;;;;;5115263;28;20744;-69
2022/10/10 01:07:36;;;;;;;14.97;10.27;;;8.50;99.90;;;;;;5113599;28;20208;-69
2022/10/10 01:10:08;;;;;;;15.70;11.03;;;8.60;99.90;;;;;;5115110;28;20223;-69
2022/10/10 01:12:48;;;;;;;15.57;10.87;;;8.50;99.90;;;;;;5115530;28;20285;-69
2022/10/10 01:15:24;;;;;;;18.53;10.57;;;8.50;99.90;;;;;;5115532;28;20253;-70
2022/10/10 01:17:57;;;;;;;14.30;10.50;;;8.50;99.90;;;;;;5114608;27;20234;-69
2022/10/10 01:20:40;;;;;;;16.20;10.83;;;8.50;99.90;;;;;;5109944;28;20204;-69
2022/10/10 01:23:44;;;;;;;20.23;11.00;;;8.50;99.90;;;;;;5111592;28;20223;-69
2022/10/10 01:26:34;;;;;;;14.90;10.40;;;8.40;99.90;;;;;;5114482;28;20588;-70
2022/10/10 01:29:09;;;;;;;15.33;10.80;;;8.40;99.90;;;;;;5114100;28;20216;-70
2022/10/10 01:31:39;;;;;;;14.03;10.10;;;8.40;99.90;;;;;;5115051;28;20218;-69
2022/10/10 01:34:17;;;;;;;16.77;9.97;;;8.40;99.90;;;;;;5115692;28;20267;-69
2022/10/10 01:36:51;;;;;;;14.93;10.53;;;8.40;99.90;;;;;;5113687;28;20272;-69
2022/10/10 01:39:24;;;;;;;18.10;10.43;;;8.40;99.90;;;;;;5111307;28;20644;-70
2022/10/10 01:41:56;;;;;;;18.00;10.53;;;8.30;99.90;;;;;;5115380;28;20660;-70
2022/10/10 01:44:24;;;;;;;14.27;10.07;;;8.30;99.90;;;;;;5109470;28;20295;-69
2022/10/10 01:46:51;;;;;;;16.07;10.53;;;8.30;99.90;;;;;;5113824;28;20227;-69
2022/10/10 01:49:18;;;;;;;14.57;10.10;;;8.30;99.90;;;;;;5113809;28;20683;-69
2022/10/10 01:51:59;;;;;;;16.53;11.03;;;8.30;99.90;;;;;;5105694;28;20666;-70
2022/10/10 01:54:35;;;;;;;15.23;10.10;;;8.30;99.90;;;;;;5106307;28;20695;-69
2022/10/10 01:57:16;;;;;;;16.30;10.50;;;8.20;99.90;;;;;;5113525;28;20219;-69
2022/10/10 01:59:59;;;;;;;15.30;9.43;;;8.20;99.90;;;;;;5114838;28;20208;-70
2022/10/10 02:02:33;;;;;;;16.13;10.07;;;8.20;99.90;;;;;;5113391;28;20208;-69
2022/10/10 02:05:06;;;;;;;17.83;9.63;;;8.30;99.90;;;;;;5115371;28;20199;-69
2022/10/10 02:07:39;;;;;;;14.53;10.67;;;8.20;99.90;;;;;;5105255;28;20687;-69
2022/10/10 02:10:08;;;;;;;14.80;9.00;;;8.20;99.90;;;;;;5112548;28;20224;-69
2022/10/10 02:12:36;;;;;;;13.13;8.87;;;8.20;99.90;;;;;;5114807;28;20203;-70
2022/10/10 02:15:09;;;;;;;19.17;9.07;;;8.20;99.90;;;;;;5114979;28;20204;-70
2022/10/10 02:17:39;;;;;;;15.50;8.93;;;8.20;99.90;;;;;;5111965;28;20211;-70
2022/10/10 02:20:07;;;;;;;13.07;8.90;;;8.30;99.90;;;;;;5114405;28;20210;-69
2022/10/10 02:22:35;;;;;;;15.00;10.03;;;8.20;99.90;;;;;;5114125;28;20219;-70
2022/10/10 02:25:02;;;;;;;13.57;9.83;;;8.20;99.90;;;;;;5110489;28;20204;-70
2022/10/10 02:27:35;;;;;;;17.07;9.50;;;8.20;99.90;;;;;;5113810;28;20200;-70
2022/10/10 02:30:05;;;;;;;11.60;8.17;;;8.20;99.90;;;;;;5114571;28;20222;-70
2022/10/10 02:32:38;;;;;;;14.63;9.17;;;8.20;99.90;;;;;;5113897;28;20203;-71
2022/10/10 02:35:09;;;;;;;14.17;9.00;;;8.20;99.90;;;;;;5114161;28;20200;-69
2022/10/10 02:37:37;;;;;;;13.00;9.00;;;8.20;99.90;;;;;;5113126;28;20199;-70
2022/10/10 02:40:07;;;;;;;14.33;9.13;;;8.20;99.90;;;;;;5114387;28;20202;-70
2022/10/10 02:42:35;;;;;;;14.37;9.50;;;8.20;99.90;;;;;;5115027;28;20202;-69
2022/10/10 02:45:05;;;;;;;15.43;9.00;;;8.20;99.90;;;;;;5114589;28;20253;-71
2022/10/10 02:47:32;;;;;;;15.10;9.17;;;8.20;99.90;;;;;;5112354;28;20225;-70
2022/10/10 02:49:58;;;;;;;13.70;8.27;;;8.10;99.90;;;;;;5112875;28;20219;-70
2022/10/10 02:52:25;;;;;;;14.07;8.90;;;8.10;99.90;;;;;;5113636;28;20199;-71
2022/10/10 02:54:52;;;;;;;15.23;8.97;;;8.10;99.90;;;;;;5113243;28;20204;-71
2022/10/10 02:57:19;;;;;;;13.83;9.10;;;8.10;99.90;;;;;;5109862;28;20302;-68
2022/10/10 02:59:46;;;;;;;18.53;9.47;;;8.10;99.90;;;;;;5116215;28;20207;-68
2022/10/10 03:02:14;;;;;;;11.20;8.40;;;8.10;99.90;;;;;;5116207;28;20456;-68
2022/10/10 03:04:41;;;;;;;17.63;10.33;;;8.10;99.90;;;;;;5116611;28;20210;-68
2022/10/10 03:07:08;;;;;;;14.90;9.30;;;8.10;99.90;;;;;;5116945;28;20212;-68
2022/10/10 03:09:34;;;;;;;14.77;9.00;;;8.10;99.90;;;;;;5117589;28;20242;-69
2022/10/10 03:12:01;;;;;;;13.93;9.30;;;8.00;99.90;;;;;;5116746;28;20204;-68
2022/10/10 03:14:28;;;;;;;13.83;8.80;;;8.10;99.90;;;;;;5115874;28;20215;-68
2022/10/10 03:16:55;;;;;;;13.30;9.03;;;8.00;99.90;;;;;;5113413;28;20679;-68
2022/10/10 03:19:23;;;;;;;11.53;9.03;;;7.90;99.90;;;;;;5117753;28;20230;-70
2022/10/10 03:21:50;;;;;;;17.37;9.33;;;8.00;99.90;;;;;;5117558;28;20196;-70
2022/10/10 03:24:17;;;;;;;15.23;8.27;;;8.00;99.90;;;;;;5117364;28;20254;-69
2022/10/10 03:26:44;;;;;;;13.80;8.70;;;8.00;99.90;;;;;;5111540;28;20259;-69
2022/10/10 03:29:10;;;;;;;15.20;9.10;;;8.10;99.90;;;;;;5115380;28;20578;-68
2022/10/10 03:31:37;;;;;;;13.27;8.67;;;8.00;99.90;;;;;;5115816;28;20218;-68
2022/10/10 03:34:04;;;;;;;13.70;9.00;;;8.00;99.90;;;;;;5115250;28;20235;-68
2022/10/10 03:36:32;;;;;;;13.40;7.90;;;8.00;99.90;;;;;;5116273;28;20629;-68
2022/10/10 03:38:59;;;;;;;15.87;9.37;;;8.00;99.90;;;;;;5116073;28;20668;-69
2022/10/10 03:41:25;;;;;;;11.57;8.37;;;7.90;99.90;;;;;;5118097;28;20200;-69
2022/10/10 03:43:52;;;;;;;14.70;9.80;;;7.90;99.90;;;;;;5116918;28;20218;-69
2022/10/10 03:46:19;;;;;;;14.20;8.67;;;7.90;99.90;;;;;;5115339;28;20196;-69
2022/10/10 03:48:47;;;;;;;14.60;9.37;;;7.80;99.90;;;;;;5116487;28;20211;-69
2022/10/10 03:51:13;;;;;;;14.77;8.70;;;7.80;99.90;;;;;;5114940;28;20216;-69
2022/10/10 03:53:42;;;;;;;17.23;9.47;;;7.80;99.90;;;;;;5115265;28;20204;-68
2022/10/10 03:56:08;;;;;;;12.77;9.27;;;7.70;99.90;;;;;;5101655;28;20220;-69
2022/10/10 03:58:35;;;;;;;16.47;8.60;;;7.70;99.90;;;;;;5115788;28;20416;-67
2022/10/10 04:01:03;;;;;;;12.77;8.60;;;7.70;99.90;;;;;;5115853;28;20549;-69
2022/10/10 04:03:30;;;;;;;13.33;8.40;;;7.60;99.90;;;;;;5115715;28;20214;-68
2022/10/10 04:05:57;;;;;;;12.70;8.00;;;7.60;99.90;;;;;;5117688;28;20207;-68
2022/10/10 04:08:24;;;;;;;13.47;9.13;;;7.60;99.90;;;;;;5114899;28;20214;-68
2022/10/10 04:10:54;;;;;;;11.83;8.67;;;7.50;99.90;;;;;;5115765;28;20226;-69
2022/10/10 04:13:22;;;;;;;12.53;7.97;;;7.40;99.90;;;;;;5114486;28;20208;-68
2022/10/10 04:15:50;;;;;;;13.70;8.33;;;7.40;99.90;;;;;;5114188;28;20548;-68
2022/10/10 04:18:16;;;;;;;12.50;8.50;;;7.40;99.90;;;;;;5113957;28;20204;-68
2022/10/10 04:20:43;;;;;;;12.70;8.63;;;7.30;99.90;;;;;;5116414;28;20200;-69
2022/10/10 04:23:10;;;;;;;12.17;8.20;;;7.30;99.90;;;;;;5109956;28;20690;-68
2022/10/10 04:25:37;;;;;;;13.27;8.00;;;7.30;99.90;;;;;;5114735;27;20244;-69
2022/10/10 04:28:05;;;;;;;10.70;7.80;;;7.20;99.90;;;;;;5114263;28;20215;-69
2022/10/10 04:30:34;;;;;;;14.03;8.30;;;7.20;99.90;;;;;;5115734;28;20223;-69
2022/10/10 04:33:01;;;;;;;11.00;7.63;;;7.20;99.90;;;;;;5115160;28;20208;-70
2022/10/10 04:35:28;;;;;;;11.00;8.10;;;7.10;99.90;;;;;;5114105;28;21145;-69
2022/10/10 04:37:54;;;;;;;14.00;8.27;;;7.10;99.90;;;;;;5110786;28;20197;-69
2022/10/10 04:40:21;;;;;;;11.73;8.27;;;7.10;99.90;;;;;;5115667;28;20208;-69
2022/10/10 04:42:48;;;;;;;12.30;7.83;;;7.10;99.90;;;;;;5112081;28;20667;-70
2022/10/10 04:45:16;;;;;;;15.10;8.20;;;7.10;99.90;;;;;;5113593;28;20682;-70
2022/10/10 04:47:43;;;;;;;14.00;8.47;;;7.10;99.90;;;;;;5114641;28;20239;-69
2022/10/10 04:50:10;;;;;;;16.13;8.77;;;7.20;99.90;;;;;;5113613;28;20228;-69
2022/10/10 04:52:37;;;;;;;12.30;7.67;;;7.10;99.90;;;;;;5111740;28;20216;-69
2022/10/10 04:55:05;;;;;;;15.83;8.03;;;7.10;99.90;;;;;;5115644;28;20272;-69
2022/10/10 04:57:31;;;;;;;10.90;8.13;;;7.10;99.90;;;;;;5112909;28;20211;-69
2022/10/10 04:59:58;;;;;;;11.27;8.00;;;7.10;99.90;;;;;;5112878;28;20207;-70
2022/10/10 05:02:26;;;;;;;10.60;7.80;;;7.20;99.90;;;;;;5111769;28;20313;-69
2022/10/10 05:04:53;;;;;;;12.23;8.13;;;7.20;99.90;;;;;;5108631;28;20209;-68
2022/10/10 05:07:20;;;;;;;14.30;7.67;;;7.20;99.90;;;;;;5112200;28;20206;-67
2022/10/10 05:09:47;;;;;;;11.03;7.87;;;7.30;99.90;;;;;;5109585;28;20990;-67
2022/10/10 05:12:13;;;;;;;11.37;8.00;;;7.30;99.90;;;;;;5098564;28;20203;-69
2022/10/10 05:14:40;;;;;;;12.53;7.63;;;7.40;99.90;;;;;;5106303;27;20210;-69
2022/10/10 05:17:07;;;;;;;13.57;8.57;;;7.40;99.90;;;;;;5108335;28;20208;-68
2022/10/10 05:19:35;;;;;;;15.13;7.57;;;7.40;99.90;;;;;;5111768;28;20214;-66
2022/10/10 05:22:02;;;;;;;12.13;8.23;;;7.30;99.90;;;;;;5110642;28;20227;-66
2022/10/10 05:24:28;;;;;;;11.10;8.80;;;7.20;99.90;;;;;;5111012;28;20207;-68
2022/10/10 05:26:55;;;;;;;14.53;8.60;;;7.20;99.90;;;;;;5109675;27;20235;-67
2022/10/10 05:29:22;;;;;;;13.10;9.43;;;7.20;99.90;;;;;;5103210;28;20195;-70
2022/10/10 05:31:49;;;;;;;14.07;9.70;;;7.10;99.90;;;;;;5108406;28;20220;-68
2022/10/10 05:34:16;;;;;;;13.73;9.30;;;7.20;99.90;;;;;;5111311;28;20208;-71
2022/10/10 05:36:44;;;;;;;13.00;8.67;;;7.20;99.90;;;;;;5108258;28;20211;-69
2022/10/10 05:39:10;;;;;;;12.33;8.93;;;7.20;99.90;;;;;;5110696;28;20208;-69
2022/10/10 05:41:37;;;;;;;16.47;9.27;;;7.20;99.90;;;;;;5110179;28;20214;-71
2022/10/10 05:44:04;;;;;;;10.63;7.53;;;7.20;99.90;;;;;;5109379;28;20208;-69
2022/10/10 05:46:31;;;;;;;12.90;8.73;;;7.20;99.90;;;;;;5111167;28;20200;-69
2022/10/10 05:48:57;;;;;;;11.13;8.17;;;7.20;99.90;;;;;;5109540;28;20683;-68
2022/10/10 05:51:24;;;;;;;13.80;8.27;;;7.20;99.90;;;;;;5112408;28;20899;-69
2022/10/10 05:53:52;;;;;;;13.33;9.27;;;7.20;99.90;;;;;;5112237;28;20579;-69
2022/10/10 05:56:19;;;;;;;13.90;8.73;;;7.10;99.90;;;;;;5111652;28;20622;-68
2022/10/10 05:58:46;;;;;;;11.53;8.67;;;7.20;99.90;;;;;;5110110;28;20218;-69
2022/10/10 06:01:13;;;;;;;13.00;9.00;;;7.20;99.90;;;;;;5112108;28;20211;-69
2022/10/10 06:03:39;;;;;;;14.33;9.77;;;7.20;99.90;;;;;;5097260;28;20206;-69
2022/10/10 06:06:06;;;;;;;13.07;8.80;;;7.20;99.90;;;;;;5108940;28;20207;-68
2022/10/10 06:08:33;;;;;;;13.90;9.07;;;7.30;99.90;;;;;;5109955;28;20204;-69
2022/10/10 06:11:04;;;;;;;14.47;9.10;;;7.30;99.90;;;;;;5111358;28;20216;-68
2022/10/10 06:13:31;;;;;;;14.33;8.77;;;7.40;99.90;;;;;;5107331;28;20511;-69
2022/10/10 06:15:58;;;;;;;13.17;8.93;;;7.40;99.90;;;;;;5110808;28;20204;-69
2022/10/10 06:18:25;;;;;;;11.90;8.57;;;7.40;99.90;;;;;;5109523;28;20294;-68
2022/10/10 06:20:52;;;;;;;10.43;7.63;;;7.40;99.90;;;;;;5110646;28;20305;-70
2022/10/10 06:23:19;;;;;;;14.83;9.60;;;7.40;99.90;;;;;;5107217;28;20236;-66
2022/10/10 06:25:46;;;;;;;12.93;9.93;;;7.50;99.90;;;;;;5106293;28;20232;-68
2022/10/10 06:28:14;;;;;;;16.40;8.53;;;7.50;99.90;;;;;;5109677;28;20208;-66
2022/10/10 06:30:41;;;;;;;11.43;9.03;;;7.60;99.90;;;;;;5107744;28;20231;-66
2022/10/10 06:33:08;;;;;;;13.47;8.97;;;7.70;99.90;;;;;;5114846;28;20211;-65
2022/10/10 06:35:39;;;;;;;12.77;9.23;;;7.70;99.90;;;;;;5116276;28;20224;-65
2022/10/10 06:38:05;;;;;;;13.70;9.03;;;7.80;99.90;;;;;;5115528;28;20203;-67
2022/10/10 06:40:33;;;;;;;11.47;8.90;;;7.90;99.90;;;;;;5116270;28;20671;-67
2022/10/10 06:42:59;;;;;;;14.83;9.10;;;7.90;99.90;;;;;;5112752;28;20199;-68
2022/10/10 06:45:27;;;;;;;16.33;9.80;;;8.00;99.90;;;;;;5116897;28;20223;-68
2022/10/10 06:47:55;;;;;;;12.63;9.50;;;8.10;99.90;;;;;;5115100;28;20211;-67
2022/10/10 06:50:22;;;;;;;18.03;11.43;;;8.20;99.90;;;;;;5115812;28;20196;-63
2022/10/10 06:52:49;;;;;;;16.23;10.70;;;8.40;99.90;;;;;;5111765;28;20574;-68
2022/10/10 06:55:16;;;;;;;15.03;10.80;;;8.50;99.90;;;;;;5117213;28;20204;-69
2022/10/10 06:57:43;;;;;;;16.80;11.47;;;8.60;99.90;;;;;;5112791;28;20207;-68
2022/10/10 07:00:11;;;;;;;21.40;14.97;;;8.70;99.90;;;;;;5109648;28;20288;-69
2022/10/10 07:02:39;;;;;;;16.27;12.30;;;8.90;99.90;;;;;;5115072;28;20295;-68
2022/10/10 07:05:07;;;;;;;15.57;11.13;;;9.20;99.90;;;;;;5111485;28;20204;-68
2022/10/10 07:07:34;;;;;;;20.87;12.43;;;9.70;99.90;;;;;;5113602;28;20266;-68
2022/10/10 07:10:01;;;;;;;16.10;11.40;;;10.00;99.90;;;;;;5116662;28;20586;-68
2022/10/10 07:12:28;;;;;;;16.90;11.47;;;10.20;99.90;;;;;;5115334;28;20231;-67
2022/10/10 07:14:55;;;;;;;15.33;11.03;;;10.20;99.90;;;;;;5117236;28;20294;-69
2022/10/10 07:17:22;;;;;;;17.07;11.20;;;10.20;99.90;;;;;;5115068;28;20695;-68
2022/10/10 07:19:50;;;;;;;15.03;10.93;;;10.30;99.90;;;;;;5115811;28;20215;-69
2022/10/10 07:22:17;;;;;;;16.17;11.13;;;10.40;99.90;;;;;;5104778;28;20232;-68
2022/10/10 07:24:44;;;;;;;16.33;11.23;;;10.50;99.90;;;;;;5117156;28;20199;-68
2022/10/10 07:27:10;;;;;;;12.43;9.63;;;10.60;99.90;;;;;;5112333;28;20607;-68
2022/10/10 07:29:37;;;;;;;11.83;9.67;;;10.80;99.90;;;;;;5106858;28;20196;-69
2022/10/10 07:32:04;;;;;;;15.20;10.07;;;11.10;99.90;;;;;;5112883;28;20224;-68
2022/10/10 07:34:31;;;;;;;11.40;8.90;;;11.30;99.90;;;;;;5109367;28;20210;-68
2022/10/10 07:36:59;;;;;;;12.03;9.33;;;11.40;99.90;;;;;;5111879;28;20200;-69
2022/10/10 07:39:26;;;;;;;11.27;7.97;;;11.50;99.90;;;;;;5118649;28;20306;-69
2022/10/10 07:41:53;;;;;;;11.70;8.70;;;11.60;99.90;;;;;;5116214;28;20199;-69
2022/10/10 07:44:20;;;;;;;11.30;8.27;;;11.70;99.90;;;;;;5115767;28;20233;-69
2022/10/10 07:46:47;;;;;;;13.27;9.00;;;11.90;99.90;;;;;;5111964;28;20196;-68
2022/10/10 07:49:14;;;;;;;11.57;8.77;;;12.00;99.90;;;;;;5112549;28;20210;-69
2022/10/10 07:51:41;;;;;;;13.37;9.30;;;12.20;99.90;;;;;;5113744;28;20220;-69
2022/10/10 07:54:10;;;;;;;12.23;9.07;;;12.30;99.90;;;;;;5114078;28;20204;-69
2022/10/10 07:56:36;;;;;;;10.87;8.03;;;12.40;99.90;;;;;;5109752;28;20582;-69
2022/10/10 07:59:03;;;;;;;9.83;8.17;;;12.50;99.90;;;;;;5112561;28;20217;-68
2022/10/10 08:01:30;;;;;;;9.83;8.33;;;12.60;99.90;;;;;;5114053;28;20200;-68
2022/10/10 08:03:57;;;;;;;12.77;8.07;;;12.60;99.90;;;;;;5114171;28;20208;-69
2022/10/10 08:06:24;;;;;;;12.90;9.10;;;12.70;99.90;;;;;;5109920;28;20211;-70
2022/10/10 08:08:50;;;;;;;9.47;7.90;;;12.80;99.90;;;;;;5112133;28;20208;-69
2022/10/10 08:11:20;;;;;;;14.70;9.20;;;12.90;99.90;;;;;;5112106;28;20251;-69
2022/10/10 08:13:47;;;;;;;12.03;8.73;;;13.00;99.90;;;;;;5113193;28;20211;-69
2022/10/10 08:16:14;;;;;;;10.23;8.37;;;13.10;99.90;;;;;;5112112;28;20214;-71
2022/10/10 08:18:41;;;;;;;12.33;8.73;;;13.20;99.90;;;;;;5113111;28;20251;-69
2022/10/10 08:21:11;;;;;;;11.53;8.73;;;13.30;99.90;;;;;;5098929;28;20212;-70
2022/10/10 08:23:38;;;;;;;12.37;7.57;;;13.40;99.90;;;;;;5109317;28;20480;-69
2022/10/10 08:26:07;;;;;;;12.00;8.40;;;13.60;99.90;;;;;;5111267;28;20231;-69
2022/10/10 08:28:35;;;;;;;12.27;8.10;;;13.80;99.90;;;;;;5083728;28;20208;-69
2022/10/10 08:31:05;;;;;;;9.10;7.63;;;13.90;99.90;;;;;;5110959;28;20719;-69
2022/10/10 08:33:32;;;;;;;8.30;7.00;;;14.10;99.90;;;;;;5110274;28;20199;-69
2022/10/10 08:36:00;;;;;;;9.90;7.83;;;14.10;99.90;;;;;;5105760;28;20201;-69
2022/10/10 08:38:26;;;;;;;8.47;7.20;;;14.20;99.90;;;;;;5112717;28;20717;-70
2022/10/10 08:40:56;;;;;;;9.60;7.40;;;14.30;99.90;;;;;;5112883;28;20226;-69
2022/10/10 08:43:39;;;;;;;7.70;6.50;;;14.50;99.90;;;;;;5113132;28;20218;-69
2022/10/10 08:46:10;;;;;;;12.30;6.60;;;14.60;99.90;;;;;;5106547;28;20203;-69
2022/10/10 08:48:39;;;;;;;8.87;7.27;;;14.70;99.90;;;;;;5111954;28;20207;-69
2022/10/10 08:51:11;;;;;;;10.23;6.97;;;15.00;99.90;;;;;;5111888;28;20214;-69
2022/10/10 08:53:41;;;;;;;8.03;6.20;;;15.50;99.90;;;;;;5110128;28;20199;-69
2022/10/10 08:56:15;;;;;;;7.68;5.88;;;16.80;99.90;;;;;;5110873;27;20218;-68
2022/10/10 08:58:48;;;;;;;7.65;5.22;;;19.90;99.90;;;;;;5109458;28;20807;-68
2022/10/10 09:01:19;;;;;;;7.43;5.43;;;23.60;91.70;;;;;;5112015;28;20196;-68
2022/10/10 09:03:48;;;;;;;6.65;4.20;;;26.80;66.60;;;;;;5110826;28;20203;-69
2022/10/10 09:06:28;;;;;;;5.55;4.80;;;29.20;55.90;;;;;;5109885;28;20649;-69
2022/10/10 09:09:04;;;;;;;6.45;4.45;;;31.30;49.40;;;;;;5101416;28;20222;-70
2022/10/10 09:11:48;;;;;;;5.40;4.70;;;32.70;44.50;;;;;;5112390;28;20671;-67
2022/10/10 09:14:29;;;;;;;5.82;4.70;;;34.00;41.40;;;;;;5108792;28;20210;-68
2022/10/10 09:17:01;;;;;;;5.30;4.00;;;35.40;40.00;;;;;;5105259;28;20203;-69
2022/10/10 09:19:41;;;;;;;5.22;4.40;;;36.60;37.00;;;;;;5110344;28;20672;-69
2022/10/10 09:22:11;;;;;;;4.90;3.95;;;37.30;35.10;;;;;;5112155;28;20220;-69
2022/10/10 09:24:43;;;;;;;6.30;3.70;;;38.00;34.20;;;;;;5112399;28;20204;-68
2022/10/10 09:27:14;;;;;;;5.25;3.97;;;38.50;32.70;;;;;;5110091;28;20255;-68
2022/10/10 09:29:49;;;;;;;8.00;3.95;;;38.70;31.80;;;;;;5107533;28;20207;-69
2022/10/10 09:32:21;;;;;;;4.65;4.13;;;38.90;31.10;;;;;;5111747;28;20223;-68
2022/10/10 09:34:50;;;;;;;4.75;3.50;;;39.70;30.50;;;;;;5111537;28;20554;-67
2022/10/10 09:37:21;;;;;;;4.30;3.67;;;39.90;29.80;;;;;;5111900;28;20561;-68
2022/10/10 09:39:52;;;;;;;4.38;3.67;;;40.50;29.50;;;;;;5111315;28;20532;-68
2022/10/10 09:42:25;;;;;;;4.40;3.03;;;40.90;28.90;;;;;;5108730;28;20207;-68
2022/10/10 09:44:53;;;;;;;5.82;4.47;;;41.60;28.90;;;;;;5111683;28;20195;-68
2022/10/10 09:47:21;;;;;;;5.28;4.00;;;42.00;27.90;;;;;;5111926;28;20207;-69
2022/10/10 09:49:48;;;;;;;4.28;3.90;;;42.10;27.80;;;;;;5107247;28;20539;-69
2022/10/10 09:52:26;;;;;;;3.97;3.63;;;42.30;27.70;;;;;;5108251;28;20215;-69
2022/10/10 09:54:57;;;;;;;3.55;3.08;;;43.10;27.20;;;;;;5111325;28;20685;-68
2022/10/10 09:57:28;;;;;;;5.32;3.35;;;43.00;26.90;;;;;;5110147;28;20294;-68
2022/10/10 09:59:56;;;;;;;4.00;3.58;;;43.20;26.70;;;;;;5110890;28;20199;-70
2022/10/10 10:02:25;;;;;;;6.32;3.40;;;43.60;26.40;;;;;;5111327;28;20199;-68
2022/10/10 10:04:52;;;;;;;3.65;3.15;;;44.00;26.40;;;;;;5110575;28;20199;-68
2022/10/10 10:07:24;;;;;;;3.47;3.15;;;44.60;25.90;;;;;;5108580;28;20214;-68
2022/10/10 10:09:52;;;;;;;5.07;3.40;;;44.70;25.50;;;;;;5110996;28;20535;-68
2022/10/10 10:12:23;;;;;;;3.33;2.90;;;44.80;25.50;;;;;;5110294;28;20230;-67
2022/10/10 10:14:52;;;;;;;3.97;2.88;;;45.00;25.20;;;;;;5108917;28;20663;-68
2022/10/10 10:17:23;;;;;;;3.47;3.10;;;44.70;25.20;;;;;;5110516;28;20210;-69
2022/10/10 10:19:51;;;;;;;3.17;2.45;;;44.60;25.30;;;;;;5109116;28;20199;-68
2022/10/10 10:22:32;;;;;;;2.90;2.30;;;44.50;25.20;;;;;;5110261;28;20722;-68
2022/10/10 10:25:20;;;;;;;2.95;2.20;;;44.50;25.10;;;;;;5110584;28;20199;-68
2022/10/10 10:27:46;;;;;;;2.63;2.03;;;45.00;24.70;;;;;;5110386;28;20289;-68
2022/10/10 10:30:25;;;;;;;3.33;2.10;;;45.20;24.40;;;;;;5110703;28;20203;-68
2022/10/10 10:33:00;;;;;;;3.00;1.73;;;45.70;24.20;;;;;;5109163;28;20221;-67
2022/10/10 10:35:31;;;;;;;2.25;1.88;;;46.10;23.60;;;;;;5109727;28;20210;-68
2022/10/10 10:38:15;;;;;;;4.25;1.80;;;46.50;23.60;;;;;;5108452;28;20207;-68
2022/10/10 10:40:47;;;;;;;3.50;1.85;;;47.00;23.30;;;;;;5110916;28;20203;-69
2022/10/10 10:43:40;;;;;;;2.88;1.80;;;47.60;23.00;;;;;;5104228;28;20191;-69
2022/10/10 10:46:13;;;;;;;2.63;2.42;;;47.70;23.00;;;;;;5104363;28;20645;-67
2022/10/10 10:48:45;;;;;;;2.42;2.20;;;47.90;22.70;;;;;;5111290;28;20210;-69
2022/10/10 10:51:32;;;;;;;2.63;2.40;;;48.00;23.00;;;;;;5107633;28;20211;-67
2022/10/10 10:54:07;;;;;;;3.10;2.58;;;48.50;22.90;;;;;;5102305;28;20202;-67
2022/10/10 10:56:40;;;;;;;3.10;2.80;;;48.20;22.90;;;;;;5109239;28;20214;-68
2022/10/10 10:59:26;;;;;;;4.00;2.47;;;47.70;23.00;;;;;;5107622;28;20203;-69
2022/10/10 11:02:01;;;;;;;2.92;2.50;;;46.80;23.30;;;;;;5102333;28;20200;-68
2022/10/10 11:04:55;;;;;;;3.83;2.95;;;46.60;23.60;;;;;;5100848;28;20202;-67
2022/10/10 11:07:23;;;;;;;4.32;2.90;;;46.40;23.60;;;;;;5107502;28;20196;-68
2022/10/10 11:09:55;;;;;;;3.33;2.58;;;45.70;23.70;;;;;;5104745;28;20669;-69
2022/10/10 11:12:41;;;;;;;3.05;2.60;;;45.30;23.70;;;;;;5103450;28;20208;-69
2022/10/10 11:15:16;;;;;;;3.97;3.00;;;45.40;23.80;;;;;;5101288;28;20196;-67
2022/10/10 11:17:47;;;;;;;2.90;2.70;;;45.00;23.90;;;;;;5106803;28;20209;-68
2022/10/10 11:20:24;;;;;;;3.45;2.90;;;44.90;24.20;;;;;;5105183;28;20215;-68
2022/10/10 11:22:55;;;;;;;5.35;2.22;;;45.30;23.90;;;;;;5112405;28;20214;-69
2022/10/10 11:25:26;;;;;;;2.70;2.22;;;45.70;23.90;;;;;;5110672;28;20235;-69
2022/10/10 11:27:59;;;;;;;3.88;2.17;;;46.30;23.30;;;;;;5112945;28;20682;-68
2022/10/10 11:30:31;;;;;;;2.88;2.10;;;47.00;22.70;;;;;;5109936;28;20667;-70
2022/10/10 11:33:04;;;;;;;2.88;2.20;;;47.60;22.60;;;;;;5113142;28;20223;-68
2022/10/10 11:35:39;;;;;;;4.65;2.08;;;48.70;22.50;;;;;;5111767;28;20205;-69
2022/10/10 11:38:15;;;;;;;2.10;1.90;;;49.80;21.90;;;;;;5112119;28;20659;-69
2022/10/10 11:40:51;;;;;;;1.77;1.58;;;50.80;21.20;;;;;;5111926;28;20687;-69
2022/10/10 11:43:27;;;;;;;2.88;1.80;;;51.40;20.70;;;;;;5107202;28;20671;-68
2022/10/10 11:46:01;;;;;;;1.45;1.35;;;50.50;20.60;;;;;;5114149;28;20203;-68
2022/10/10 11:48:35;;;;;;;3.17;1.50;;;49.10;21.10;;;;;;5107563;28;20653;-69
2022/10/10 11:51:23;;;;;;;1.50;1.40;;;48.00;21.60;;;;;;5110654;28;20206;-68
2022/10/10 11:53:55;;;;;;;1.73;1.45;;;48.00;21.70;;;;;;5111259;28;20672;-68
2022/10/10 11:56:27;;;;;;;4.40;1.95;;;48.40;21.50;;;;;;5111965;28;20191;-69
2022/10/10 11:58:58;;;;;;;4.68;1.63;;;47.80;21.60;;;;;;5114157;28;20202;-67
2022/10/10 12:01:29;;;;;;;1.80;1.40;;;47.00;21.90;;;;;;5113711;28;20195;-69
2022/10/10 12:03:57;;;;;;;2.30;1.50;;;46.30;22.10;;;;;;5111456;28;20202;-68
2022/10/10 12:06:30;;;;;;;1.42;1.33;;;46.00;22.10;;;;;;5114669;28;20203;-68
2022/10/10 12:09:01;;;;;;;2.60;1.52;;;46.30;22.30;;;;;;5114452;28;20196;-68
2022/10/10 12:11:33;;;;;;;1.38;1.27;;;46.20;22.00;;;;;;5115870;28;20195;-69
2022/10/10 12:14:02;;;;;;;2.80;1.52;;;46.00;22.20;;;;;;5109413;27;20653;-68
2022/10/10 12:16:31;;;;;;;2.58;2.00;;;46.00;22.20;;;;;;5105972;28;20219;-68
2022/10/10 12:19:02;;;;;;;3.33;1.77;;;45.40;22.20;;;;;;5107546;28;20203;-68
2022/10/10 12:21:31;;;;;;;5.20;2.85;;;44.70;22.50;;;;;;5112278;28;20739;-68
2022/10/10 12:24:04;;;;;;;2.35;1.58;;;44.30;22.90;;;;;;5108259;28;20219;-68
2022/10/10 12:27:17;;;;;;;2.67;1.95;;;43.90;23.20;;;;;;5109572;28;20730;-68
2022/10/10 12:29:46;;;;;;;2.42;2.22;;;44.40;23.10;;;;;;5047377;28;20196;-69
2022/10/10 12:32:26;;;;;;;2.40;1.70;;;45.00;22.90;;;;;;5107090;28;20534;-67
2022/10/10 12:35:00;;;;;;;3.25;1.88;;;45.70;22.80;;;;;;5106349;28;20203;-68
2022/10/10 12:37:31;;;;;;;2.13;1.90;;;46.00;22.40;;;;;;5106617;28;20194;-70
2022/10/10 12:40:20;;;;;;;3.00;2.10;;;46.30;22.30;;;;;;5113142;28;20207;-68
2022/10/10 12:43:22;;;;;;;2.30;2.00;;;46.10;22.20;;;;;;5109282;28;20520;-68
2022/10/10 12:46:09;;;;;;;3.20;2.15;;;43.70;22.40;;;;;;5008681;28;20248;-68
2022/10/10 12:48:36;;;;;;;1.85;1.60;;;40.90;23.70;;;;;;5105342;28;20210;-67
2022/10/10 12:51:03;;;;;;;2.58;1.67;;;38.50;25.60;;;;;;5112138;28;20269;-68
2022/10/10 12:53:33;;;;;;;2.72;1.42;;;36.30;26.50;;;;;;5111433;28;20227;-69
2022/10/10 12:56:02;;;;;;;2.53;2.00;;;34.50;27.50;;;;;;5102838;28;20622;-68
2022/10/10 12:58:32;;;;;;;1.85;1.75;;;32.30;28.90;;;;;;5108237;28;20254;-68